createdAt,value
2023-10-29T00:01:12.664Z,4.90
2023-10-29T00:03:47.588Z,5.60
2023-10-29T00:06:18.042Z,5.03
2023-10-29T00:08:47.713Z,4.57
2023-10-29T00:11:15.994Z,4.30
2023-10-29T00:13:50.720Z,4.73
2023-10-29T00:16:19.372Z,5.83
2023-10-29T00:18:46.652Z,6.70
2023-10-29T00:21:14.439Z,4.40
2023-10-29T00:23:45.353Z,6.33
2023-10-29T00:26:14.112Z,5.20
2023-10-29T00:28:48.721Z,5.47
2023-10-29T00:31:17.483Z,4.47
2023-10-29T00:33:49.524Z,4.70
2023-10-29T00:36:25.945Z,5.17
2023-10-29T00:38:58.562Z,4.23
2023-10-29T00:41:32.253Z,4.30
2023-10-29T00:44:01.754Z,4.33
2023-10-29T00:46:34.768Z,5.13
2023-10-29T00:49:04.722Z,3.93
2023-10-29T00:51:41.627Z,6.07
2023-10-29T00:54:16.981Z,4.13
2023-10-29T00:56:47.097Z,4.57
2023-10-29T00:59:16.185Z,4.53
2023-10-29T01:01:46.906Z,3.70
2023-10-29T01:04:18.439Z,4.10
2023-10-29T01:06:48.122Z,4.23
2023-10-29T01:09:18.251Z,4.20
2023-10-29T01:11:48.764Z,4.80
2023-10-29T01:14:20.668Z,4.17
2023-10-29T01:16:52.814Z,4.83
2023-10-29T01:19:21.565Z,5.00
2023-10-29T01:21:51.449Z,4.10
2023-10-29T01:24:18.772Z,4.23
2023-10-29T01:26:47.081Z,4.57
2023-10-29T01:29:18.983Z,4.43
2023-10-29T01:31:54.493Z,5.83
2023-10-29T01:34:22.596Z,5.07
2023-10-29T01:36:55.388Z,4.80
2023-10-29T01:39:26.434Z,18.07
2023-10-29T01:41:57.945Z,13.43
2023-10-29T01:44:26.570Z,13.80
2023-10-29T01:46:54.922Z,10.80
2023-10-29T01:49:25.819Z,10.00
2023-10-29T01:51:59.000Z,8.53
2023-10-29T01:54:28.151Z,9.57
2023-10-29T01:56:57.291Z,8.97
2023-10-29T01:59:27.121Z,8.13
2023-10-29T02:02:04.567Z,10.70
2023-10-29T02:04:38.974Z,7.17
2023-10-29T02:07:08.696Z,6.80
2023-10-29T02:09:40.322Z,6.60
2023-10-29T02:12:08.783Z,7.70
2023-10-29T02:14:38.148Z,9.43
2023-10-29T02:17:15.754Z,9.70
2023-10-29T02:19:46.977Z,7.00
2023-10-29T02:22:20.259Z,8.23
2023-10-29T02:24:49.639Z,9.40
2023-10-29T02:27:20.306Z,8.80
2023-10-29T02:29:50.325Z,7.03
2023-10-29T02:32:23.893Z,9.13
2023-10-29T02:34:51.745Z,8.93
2023-10-29T02:37:22.381Z,9.53
2023-10-29T02:39:53.742Z,9.50
2023-10-29T02:42:26.979Z,8.97
2023-10-29T02:44:54.568Z,10.50
2023-10-29T02:47:26.337Z,8.00
2023-10-29T02:49:58.407Z,8.17
2023-10-29T02:52:26.870Z,6.97
2023-10-29T02:54:58.949Z,7.03
2023-10-29T02:57:27.394Z,7.33
2023-10-29T02:59:55.384Z,5.73
2023-10-29T03:02:27.489Z,6.33
2023-10-29T03:05:01.939Z,5.90
2023-10-29T03:07:30.384Z,5.30
2023-10-29T03:09:58.342Z,5.07
2023-10-29T03:12:27.188Z,5.63
2023-10-29T03:15:05.824Z,5.00
2023-10-29T03:17:36.077Z,4.93
2023-10-29T03:20:05.359Z,4.90
2023-10-29T03:22:36.749Z,5.60
2023-10-29T03:25:06.967Z,4.87
2023-10-29T03:27:37.118Z,7.13
2023-10-29T03:30:08.336Z,7.33
2023-10-29T03:32:38.587Z,6.60
2023-10-29T03:35:10.073Z,7.33
2023-10-29T03:37:40.038Z,6.70
2023-10-29T03:40:11.959Z,6.73
2023-10-29T03:42:50.052Z,6.60
2023-10-29T03:45:18.405Z,6.60
2023-10-29T03:47:46.024Z,5.63
2023-10-29T03:50:18.928Z,7.43
2023-10-29T03:52:47.029Z,5.80
2023-10-29T03:55:16.951Z,6.30
2023-10-29T03:57:46.141Z,7.07
2023-10-29T04:00:16.454Z,7.63
2023-10-29T04:02:44.384Z,7.67
2023-10-29T04:05:15.122Z,6.20
2023-10-29T04:08:08.234Z,5.10
2023-10-29T04:10:37.685Z,7.67
2023-10-29T04:13:10.104Z,6.73
2023-10-29T04:15:47.191Z,5.90
2023-10-29T04:18:26.504Z,5.63
2023-10-29T04:21:13.186Z,5.27
2023-10-29T04:23:45.700Z,4.97
2023-10-29T04:26:22.285Z,5.13
2023-10-29T04:28:52.855Z,6.20
2023-10-29T04:31:20.490Z,4.47
2023-10-29T04:33:52.916Z,4.40
2023-10-29T04:36:26.843Z,4.50
2023-10-29T04:38:55.075Z,4.50
2023-10-29T04:41:24.082Z,4.03
2023-10-29T04:43:53.514Z,4.53
2023-10-29T04:46:20.640Z,5.00
2023-10-29T04:48:50.712Z,5.10
2023-10-29T04:51:23.774Z,4.90
2023-10-29T04:53:51.490Z,4.70
2023-10-29T04:56:22.368Z,4.63
2023-10-29T04:58:50.296Z,5.73
2023-10-29T05:01:20.388Z,4.87
2023-10-29T05:03:48.125Z,4.93
2023-10-29T05:06:21.954Z,4.97
2023-10-29T05:08:51.196Z,5.53
2023-10-29T05:11:19.478Z,4.70
2023-10-29T05:13:50.745Z,6.33
2023-10-29T05:16:21.438Z,6.10
2023-10-29T05:18:49.916Z,6.63
2023-10-29T05:21:22.238Z,7.93
2023-10-29T05:23:50.847Z,10.13
2023-10-29T05:26:26.738Z,12.37
2023-10-29T05:28:56.337Z,12.03
2023-10-29T05:31:27.359Z,8.20
2023-10-29T05:33:58.587Z,6.90
2023-10-29T05:36:29.655Z,8.43
2023-10-29T05:38:59.656Z,12.30
2023-10-29T05:41:26.916Z,17.30
2023-10-29T05:43:53.905Z,12.63
2023-10-29T05:46:26.262Z,10.10
2023-10-29T05:48:54.505Z,11.80
2023-10-29T05:51:28.960Z,11.60
2023-10-29T05:53:58.564Z,14.20
2023-10-29T05:56:26.651Z,17.30
2023-10-29T05:58:57.691Z,15.80
2023-10-29T06:01:27.302Z,14.40
2023-10-29T06:03:57.184Z,26.40
2023-10-29T06:06:28.779Z,17.30
2023-10-29T06:09:00.275Z,12.47
2023-10-29T06:11:35.636Z,22.87
2023-10-29T06:14:04.304Z,16.57
2023-10-29T06:16:35.724Z,27.27
2023-10-29T06:19:07.115Z,21.13
2023-10-29T06:21:46.063Z,15.90
2023-10-29T06:24:16.226Z,16.20
2023-10-29T06:26:50.077Z,12.47
2023-10-29T06:29:21.628Z,12.60
2023-10-29T06:31:50.221Z,28.23
2023-10-29T06:34:19.732Z,32.53
2023-10-29T06:36:48.327Z,16.30
2023-10-29T06:39:15.927Z,28.73
2023-10-29T06:41:44.876Z,21.63
2023-10-29T06:44:13.552Z,20.47
2023-10-29T06:46:41.401Z,13.50
2023-10-29T06:49:17.360Z,13.90
2023-10-29T06:51:51.526Z,12.80
2023-10-29T06:54:21.725Z,15.20
2023-10-29T06:56:51.405Z,11.97
2023-10-29T06:59:21.691Z,10.83
2023-10-29T07:01:55.893Z,12.90
2023-10-29T07:04:23.435Z,12.40
2023-10-29T07:06:54.760Z,11.60
2023-10-29T07:09:30.532Z,13.90
2023-10-29T07:12:00.334Z,17.50
2023-10-29T07:14:29.287Z,13.60
2023-10-29T07:16:58.635Z,19.43
2023-10-29T07:19:26.561Z,15.60
2023-10-29T07:21:54.146Z,17.90
2023-10-29T07:24:24.608Z,11.70
2023-10-29T07:26:53.494Z,15.00
2023-10-29T07:29:26.637Z,7.73
2023-10-29T07:31:54.799Z,9.67
2023-10-29T07:34:22.667Z,8.67
2023-10-29T07:37:00.377Z,11.80
2023-10-29T07:39:28.888Z,11.13
2023-10-29T07:42:06.145Z,13.27
2023-10-29T07:44:38.467Z,10.60
2023-10-29T07:47:10.050Z,17.67
2023-10-29T07:49:39.000Z,13.93
2023-10-29T07:52:08.474Z,9.03
2023-10-29T07:54:41.124Z,11.57
2023-10-29T07:57:11.105Z,7.83
2023-10-29T07:59:45.665Z,16.67
2023-10-29T08:02:13.296Z,9.43
2023-10-29T08:04:42.503Z,9.00
2023-10-29T08:07:10.942Z,10.13
2023-10-29T08:09:42.711Z,9.63
2023-10-29T08:12:10.113Z,12.53
2023-10-29T08:14:38.713Z,10.17
2023-10-29T08:17:07.393Z,7.40
2023-10-29T08:19:38.623Z,6.37
2023-10-29T08:22:09.123Z,7.13
2023-10-29T08:24:39.834Z,7.97
2023-10-29T08:27:08.727Z,8.60
2023-10-29T08:29:46.302Z,6.40
2023-10-29T08:32:14.807Z,6.00
2023-10-29T08:34:45.175Z,7.17
2023-10-29T08:37:13.924Z,9.47
2023-10-29T08:39:42.363Z,10.67
2023-10-29T08:42:13.313Z,8.73
2023-10-29T08:44:46.362Z,26.13
2023-10-29T08:47:17.470Z,8.97
2023-10-29T08:49:48.638Z,8.07
2023-10-29T08:52:17.396Z,30.67
2023-10-29T08:54:48.514Z,27.53
2023-10-29T08:57:22.244Z,14.93
2023-10-29T08:59:53.408Z,18.10
2023-10-29T09:02:27.949Z,7.27
2023-10-29T09:04:59.552Z,14.10
2023-10-29T09:07:30.510Z,10.70
2023-10-29T09:10:05.208Z,7.37
2023-10-29T09:12:33.129Z,9.90
2023-10-29T09:15:00.677Z,8.03
2023-10-29T09:17:30.508Z,6.97
2023-10-29T09:20:04.621Z,7.53
2023-10-29T09:22:32.640Z,7.83
2023-10-29T09:25:06.258Z,6.63
2023-10-29T09:27:38.829Z,6.73
2023-10-29T09:30:12.143Z,6.93
2023-10-29T09:32:39.580Z,7.20
2023-10-29T09:35:10.094Z,7.37
2023-10-29T09:37:41.625Z,8.30
2023-10-29T09:40:17.615Z,7.03
2023-10-29T09:42:54.787Z,7.73
2023-10-29T09:45:27.110Z,8.07
2023-10-29T09:47:57.222Z,7.70
2023-10-29T09:50:25.737Z,7.17
2023-10-29T09:52:58.291Z,7.97
2023-10-29T09:55:33.003Z,7.60
2023-10-29T09:58:01.873Z,7.63
2023-10-29T10:00:35.397Z,7.90
2023-10-29T10:03:13.888Z,18.97
2023-10-29T10:05:43.992Z,10.83
2023-10-29T10:08:23.140Z,9.50
2023-10-29T10:10:54.001Z,8.20
2023-10-29T10:13:46.063Z,12.97
2023-10-29T10:16:45.403Z,8.47
2023-10-29T10:19:16.380Z,14.40
2023-10-29T10:21:46.798Z,16.30
2023-10-29T10:24:14.607Z,8.57
2023-10-29T10:26:44.951Z,7.70
2023-10-29T10:29:15.530Z,7.70
2023-10-29T10:31:43.672Z,8.03
2023-10-29T10:34:22.582Z,9.17
2023-10-29T10:36:51.626Z,8.23
2023-10-29T10:39:25.283Z,9.47
2023-10-29T10:41:54.434Z,18.07
2023-10-29T10:44:29.639Z,9.93
2023-10-29T10:47:00.182Z,12.90
2023-10-29T10:49:35.514Z,9.60
2023-10-29T10:52:06.621Z,9.50
2023-10-29T10:54:36.811Z,8.20
2023-10-29T10:57:09.524Z,9.00
2023-10-29T10:59:45.830Z,8.40
2023-10-29T11:02:19.181Z,8.27
2023-10-29T11:04:48.120Z,8.70
2023-10-29T11:07:20.544Z,7.40
2023-10-29T11:09:53.778Z,7.77
2023-10-29T11:12:21.618Z,7.80
2023-10-29T11:15:22.398Z,8.33
2023-10-29T11:18:04.286Z,8.70
2023-10-29T11:20:45.233Z,9.87
2023-10-29T11:23:24.896Z,8.40
2023-10-29T11:26:16.313Z,7.77
2023-10-29T11:28:45.906Z,8.03
2023-10-29T11:31:21.097Z,8.20
2023-10-29T11:34:12.880Z,7.93
2023-10-29T11:36:49.187Z,7.67
2023-10-29T11:39:18.331Z,7.40
2023-10-29T11:41:48.495Z,7.63
2023-10-29T11:44:31.357Z,7.27
2023-10-29T11:47:06.766Z,7.17
2023-10-29T11:49:47.205Z,7.40
2023-10-29T11:52:21.819Z,7.23
2023-10-29T11:54:59.821Z,6.93
2023-10-29T11:57:28.559Z,7.53
2023-10-29T12:00:22.403Z,7.37
2023-10-29T12:02:53.552Z,8.40
2023-10-29T12:05:21.766Z,7.73
2023-10-29T12:08:01.135Z,8.13
2023-10-29T12:10:29.811Z,7.53
2023-10-29T12:12:58.604Z,7.57
2023-10-29T12:15:30.984Z,8.57
2023-10-29T12:17:59.174Z,7.93
2023-10-29T12:20:30.180Z,7.43
2023-10-29T12:22:59.366Z,7.67
2023-10-29T12:25:27.107Z,7.50
2023-10-29T12:28:03.974Z,7.30
2023-10-29T12:30:43.392Z,6.87
2023-10-29T12:33:22.232Z,7.40
2023-10-29T12:35:56.493Z,7.83
2023-10-29T12:38:28.661Z,7.27
2023-10-29T12:41:16.047Z,7.33
2023-10-29T12:43:54.694Z,7.63
2023-10-29T12:46:23.153Z,7.07
2023-10-29T12:49:10.620Z,7.33
2023-10-29T12:51:55.269Z,7.53
2023-10-29T12:54:29.544Z,7.23
2023-10-29T12:57:04.285Z,7.93
2023-10-29T12:59:38.098Z,8.27
2023-10-29T13:02:08.773Z,7.53
2023-10-29T13:04:39.422Z,7.40
2023-10-29T13:07:11.348Z,7.87
2023-10-29T13:09:50.124Z,8.50
2023-10-29T13:12:19.632Z,8.43
2023-10-29T13:14:53.966Z,7.70
2023-10-29T13:17:22.369Z,7.30
2023-10-29T13:19:54.118Z,8.23
2023-10-29T13:22:23.996Z,7.00
2023-10-29T13:25:04.094Z,7.23
2023-10-29T13:27:33.483Z,7.17
2023-10-29T13:30:00.868Z,6.73
2023-10-29T13:32:32.229Z,7.13
2023-10-29T13:35:01.334Z,7.10
2023-10-29T13:37:30.102Z,6.13
2023-10-29T13:40:01.974Z,6.37
2023-10-29T13:42:29.404Z,6.30
2023-10-29T13:44:58.932Z,6.70
2023-10-29T13:47:28.061Z,6.80
2023-10-29T13:49:57.462Z,6.03
2023-10-29T13:52:26.706Z,5.43
2023-10-29T13:54:54.861Z,6.00
2023-10-29T13:57:24.940Z,6.40
2023-10-29T13:59:53.317Z,6.47
2023-10-29T14:02:21.365Z,6.30
2023-10-29T14:04:53.059Z,5.53
2023-10-29T14:07:22.134Z,5.93
2023-10-29T14:09:49.784Z,6.10
2023-10-29T14:12:22.253Z,6.07
2023-10-29T14:14:59.142Z,6.30
2023-10-29T14:17:38.386Z,5.77
2023-10-29T14:20:17.724Z,5.97
2023-10-29T14:22:48.725Z,6.27
2023-10-29T14:25:19.227Z,6.87
2023-10-29T14:27:50.582Z,6.37
2023-10-29T14:30:19.758Z,6.83
2023-10-29T14:32:50.540Z,6.67
2023-10-29T14:35:19.277Z,7.00
2023-10-29T14:38:06.354Z,7.43
2023-10-29T14:40:34.066Z,6.73
2023-10-29T14:43:20.610Z,7.20
2023-10-29T14:45:55.324Z,8.50
2023-10-29T14:48:23.051Z,8.77
2023-10-29T14:50:52.590Z,9.87
2023-10-29T14:53:26.410Z,9.93
2023-10-29T14:55:55.211Z,8.63
2023-10-29T14:58:25.541Z,7.63
2023-10-29T15:00:54.924Z,7.20
2023-10-29T15:03:23.923Z,7.53
2023-10-29T15:05:58.465Z,9.07
2023-10-29T15:08:29.764Z,8.53
2023-10-29T15:11:00.994Z,7.43
2023-10-29T15:13:31.302Z,7.70
2023-10-29T15:15:59.507Z,8.30
2023-10-29T15:18:30.533Z,7.97
2023-10-29T15:21:13.227Z,7.97
2023-10-29T15:23:44.420Z,8.07
2023-10-29T15:26:26.852Z,8.03
2023-10-29T15:28:55.040Z,7.67
2023-10-29T15:31:27.189Z,7.67
2023-10-29T15:34:05.438Z,7.00
2023-10-29T15:36:33.610Z,7.23
2023-10-29T15:39:02.868Z,7.07
2023-10-29T15:41:32.254Z,12.07
2023-10-29T15:44:05.726Z,11.77
2023-10-29T15:46:39.618Z,12.07
2023-10-29T15:49:08.390Z,12.80
2023-10-29T15:51:36.603Z,11.03
2023-10-29T15:54:13.115Z,11.97
2023-10-29T15:56:39.973Z,11.83
2023-10-29T15:59:10.470Z,11.20
2023-10-29T16:01:39.042Z,11.23
2023-10-29T16:04:11.719Z,11.53
2023-10-29T16:06:39.379Z,11.03
2023-10-29T16:09:12.413Z,11.83
2023-10-29T16:11:41.501Z,11.83
2023-10-29T16:14:13.703Z,11.63
2023-10-29T16:16:43.461Z,11.33
2023-10-29T16:19:12.463Z,13.10
2023-10-29T16:21:40.757Z,13.13
2023-10-29T16:24:13.200Z,12.73
2023-10-29T16:26:47.864Z,12.80
2023-10-29T16:29:21.324Z,13.00
2023-10-29T16:31:54.510Z,13.57
2023-10-29T16:34:22.653Z,14.03
2023-10-29T16:36:52.610Z,13.77
2023-10-29T16:39:22.412Z,14.40
2023-10-29T16:41:50.436Z,15.63
2023-10-29T16:44:18.317Z,15.60
2023-10-29T16:46:48.574Z,16.07
2023-10-29T16:49:20.006Z,15.57
2023-10-29T16:51:54.603Z,14.83
2023-10-29T16:54:22.380Z,14.40
2023-10-29T16:56:53.931Z,16.87
2023-10-29T16:59:32.386Z,17.20
2023-10-29T17:02:01.555Z,19.70
2023-10-29T17:04:29.094Z,24.23
2023-10-29T17:06:56.030Z,22.30
2023-10-29T17:09:23.480Z,21.50
2023-10-29T17:11:51.385Z,24.00
2023-10-29T17:14:21.353Z,24.50
2023-10-29T17:16:56.670Z,19.63
2023-10-29T17:19:25.681Z,17.17
2023-10-29T17:21:52.647Z,16.13
2023-10-29T17:24:26.895Z,14.83
2023-10-29T17:26:56.566Z,14.53
2023-10-29T17:29:29.217Z,13.40
2023-10-29T17:32:00.367Z,14.23
2023-10-29T17:34:29.060Z,14.40
2023-10-29T17:37:01.041Z,14.90
2023-10-29T17:39:35.692Z,14.50
2023-10-29T17:42:05.824Z,13.90
2023-10-29T17:44:33.773Z,12.90
2023-10-29T17:47:21.020Z,13.53
2023-10-29T17:49:52.502Z,15.43
2023-10-29T17:52:21.909Z,14.57
2023-10-29T17:54:50.171Z,15.03
2023-10-29T17:57:21.245Z,13.80
2023-10-29T17:59:49.919Z,13.43
2023-10-29T18:02:21.856Z,12.27
2023-10-29T18:04:56.441Z,13.07
2023-10-29T18:07:24.190Z,12.83
2023-10-29T18:09:51.727Z,11.70
2023-10-29T18:12:20.142Z,11.93
2023-10-29T18:14:49.983Z,12.47
2023-10-29T18:17:25.961Z,11.20
2023-10-29T18:19:53.402Z,12.80
2023-10-29T18:22:20.547Z,15.20
2023-10-29T18:24:47.541Z,19.53
2023-10-29T18:27:15.512Z,19.70
2023-10-29T18:29:43.004Z,21.90
2023-10-29T18:32:14.010Z,24.70
2023-10-29T18:34:43.196Z,26.63
2023-10-29T18:37:14.784Z,23.87
2023-10-29T18:39:46.871Z,22.43
2023-10-29T18:42:19.324Z,22.00
2023-10-29T18:44:47.487Z,21.10
2023-10-29T18:47:22.973Z,40.17
2023-10-29T18:49:54.609Z,26.07
2023-10-29T18:52:32.970Z,25.93
2023-10-29T18:55:01.289Z,27.27
2023-10-29T18:57:40.409Z,22.40
2023-10-29T19:00:12.838Z,21.17
2023-10-29T19:02:40.632Z,20.73
2023-10-29T19:05:13.974Z,21.23
2023-10-29T19:07:41.703Z,20.53
2023-10-29T19:10:10.601Z,22.40
2023-10-29T19:12:39.071Z,21.80
2023-10-29T19:15:07.686Z,20.83
2023-10-29T19:17:42.423Z,19.03
2023-10-29T19:20:12.508Z,17.33
2023-10-29T19:22:42.840Z,17.47
2023-10-29T19:25:14.360Z,14.73
2023-10-29T19:27:42.083Z,14.33
2023-10-29T19:30:14.337Z,13.07
2023-10-29T19:32:46.166Z,14.00
2023-10-29T19:35:14.682Z,13.87
2023-10-29T19:37:42.030Z,13.30
2023-10-29T19:40:13.772Z,13.03
2023-10-29T19:42:41.845Z,11.67
2023-10-29T19:45:13.675Z,12.60
2023-10-29T19:47:44.960Z,12.93
2023-10-29T19:50:16.633Z,11.83
2023-10-29T19:52:46.621Z,13.23
2023-10-29T19:55:17.019Z,12.50
2023-10-29T19:57:50.972Z,12.37
2023-10-29T20:00:21.550Z,11.70
2023-10-29T20:02:50.160Z,12.13
2023-10-29T20:05:20.484Z,12.83
2023-10-29T20:07:51.583Z,12.70
2023-10-29T20:10:28.869Z,26.20
2023-10-29T20:12:56.756Z,21.87
2023-10-29T20:15:28.960Z,15.60
2023-10-29T20:17:57.256Z,14.77
2023-10-29T20:20:31.010Z,15.97
2023-10-29T20:23:00.404Z,16.60
2023-10-29T20:25:32.680Z,20.20
2023-10-29T20:28:22.882Z,18.53
2023-10-29T20:30:51.748Z,21.53
2023-10-29T20:33:20.688Z,19.67
2023-10-29T20:35:48.429Z,18.60
2023-10-29T20:38:20.770Z,18.03
2023-10-29T20:40:49.718Z,16.13
2023-10-29T20:43:20.742Z,15.50
2023-10-29T20:45:51.859Z,14.27
2023-10-29T20:48:23.577Z,13.87
2023-10-29T20:51:02.868Z,12.57
2023-10-29T20:53:31.451Z,12.90
2023-10-29T20:56:04.989Z,13.47
2023-10-29T20:58:33.916Z,13.30
2023-10-29T21:01:05.879Z,13.13
2023-10-29T21:03:34.723Z,13.17
2023-10-29T21:06:02.810Z,13.37
2023-10-29T21:08:33.010Z,14.63
2023-10-29T21:11:17.630Z,15.63
2023-10-29T21:13:49.524Z,15.30
2023-10-29T21:16:24.058Z,13.90
2023-10-29T21:18:54.213Z,14.67
2023-10-29T21:21:29.322Z,14.87
2023-10-29T21:24:02.419Z,13.90
2023-10-29T21:26:31.944Z,14.67
2023-10-29T21:28:59.506Z,13.43
2023-10-29T21:31:28.049Z,14.17
2023-10-29T21:33:55.203Z,13.43
2023-10-29T21:36:23.656Z,15.30
2023-10-29T21:38:56.458Z,15.20
2023-10-29T21:41:30.932Z,16.30
2023-10-29T21:44:02.358Z,18.03
2023-10-29T21:46:35.953Z,19.13
2023-10-29T21:49:04.880Z,18.97
2023-10-29T21:51:35.357Z,18.67
2023-10-29T21:54:04.213Z,18.67
2023-10-29T21:56:37.401Z,18.00
2023-10-29T21:59:08.231Z,18.67
2023-10-29T22:01:36.914Z,18.23
2023-10-29T22:04:12.337Z,16.70
2023-10-29T22:06:40.681Z,16.50
2023-10-29T22:09:10.653Z,15.77
2023-10-29T22:11:39.269Z,15.00
2023-10-29T22:14:08.392Z,13.30
2023-10-29T22:16:39.488Z,12.33
2023-10-29T22:19:10.104Z,12.53
2023-10-29T22:21:38.420Z,12.97
2023-10-29T22:24:29.077Z,12.77
2023-10-29T22:26:56.918Z,13.00
2023-10-29T22:29:24.739Z,12.37
2023-10-29T22:31:59.555Z,10.33
2023-10-29T22:34:27.101Z,10.70
2023-10-29T22:36:57.920Z,11.33
2023-10-29T22:39:32.043Z,11.60
2023-10-29T22:41:59.820Z,10.47
2023-10-29T22:44:31.601Z,10.77
2023-10-29T22:47:05.278Z,10.53
2023-10-29T22:49:33.929Z,10.60
2023-10-29T22:52:04.645Z,10.97
2023-10-29T22:54:35.404Z,10.83
2023-10-29T22:57:07.013Z,10.60
2023-10-29T22:59:36.537Z,9.80
2023-10-29T23:02:06.899Z,10.57
2023-10-29T23:04:37.264Z,10.50
2023-10-29T23:07:07.379Z,10.70
2023-10-29T23:09:35.323Z,10.67
2023-10-29T23:12:04.062Z,10.47
2023-10-29T23:14:44.876Z,10.80
2023-10-29T23:17:12.795Z,10.27
2023-10-29T23:19:41.581Z,10.57
2023-10-29T23:22:08.947Z,11.13
2023-10-29T23:24:39.576Z,10.57
2023-10-29T23:27:07.856Z,10.50
2023-10-29T23:29:37.724Z,10.90
2023-10-29T23:32:07.539Z,11.13
2023-10-29T23:34:44.183Z,10.57
2023-10-29T23:37:12.145Z,11.23
2023-10-29T23:39:40.583Z,10.90
2023-10-29T23:42:11.260Z,10.67
2023-10-29T23:44:43.907Z,10.20
2023-10-29T23:47:18.227Z,10.47
2023-10-29T23:49:50.739Z,10.73
2023-10-29T23:52:21.090Z,10.27
2023-10-29T23:54:49.994Z,10.77
2023-10-29T23:57:20.556Z,10.87
2023-10-29T23:59:54.484Z,11.37
